createdAt,value
2022-11-15T00:00:53.720Z,99202.50
2022-11-15T00:03:23.253Z,99192.13
2022-11-15T00:05:50.577Z,99181.84
2022-11-15T00:08:17.208Z,99176.72
2022-11-15T00:10:44.331Z,99164.69
2022-11-15T00:13:13.405Z,99152.66
2022-11-15T00:15:41.816Z,99145.81
2022-11-15T00:18:14.269Z,99152.78
2022-11-15T00:20:41.024Z,99159.63
2022-11-15T00:23:07.949Z,99154.44
2022-11-15T00:25:34.952Z,99140.72
2022-11-15T00:28:02.100Z,99136.44
2022-11-15T00:30:29.356Z,99127.88
2022-11-15T00:32:56.320Z,99125.28
2022-11-15T00:35:23.376Z,99121.88
2022-11-15T00:37:49.848Z,99118.47
2022-11-15T00:40:16.676Z,99120.19
2022-11-15T00:42:43.473Z,99109.88
2022-11-15T00:45:10.551Z,99112.56
2022-11-15T00:47:37.141Z,99110.00
2022-11-15T00:50:04.146Z,99104.09
2022-11-15T00:52:30.685Z,99108.31
2022-11-15T00:54:57.258Z,99088.63
2022-11-15T00:57:24.523Z,99090.34
2022-11-15T00:59:51.001Z,99074.09
2022-11-15T01:02:17.513Z,99084.28
2022-11-15T01:04:43.989Z,99074.00
2022-11-15T01:07:10.608Z,99055.97
2022-11-15T01:09:37.409Z,99047.28
2022-11-15T01:12:04.253Z,99033.63
2022-11-15T01:14:30.827Z,99027.69
2022-11-15T01:16:57.525Z,99020.81
2022-11-15T01:19:24.362Z,99018.38
2022-11-15T01:21:51.517Z,99022.63
2022-11-15T01:24:18.731Z,99008.94
2022-11-15T01:26:45.225Z,99003.78
2022-11-15T01:29:11.779Z,98997.75
2022-11-15T01:31:38.998Z,98996.00
2022-11-15T01:34:05.486Z,98988.28
2022-11-15T01:36:31.994Z,98980.59
2022-11-15T01:38:59.516Z,98964.28
2022-11-15T01:41:29.014Z,98960.84
2022-11-15T01:43:58.198Z,98958.22
2022-11-15T01:46:38.814Z,98950.50
2022-11-15T01:49:14.035Z,98939.41
2022-11-15T01:51:40.779Z,98933.38
2022-11-15T01:54:13.317Z,98935.06
2022-11-15T01:56:47.476Z,98929.84
2022-11-15T01:59:14.645Z,98923.91
2022-11-15T02:01:41.673Z,98908.47
2022-11-15T02:04:12.118Z,98909.34
2022-11-15T02:06:40.734Z,98895.63
2022-11-15T02:09:07.244Z,98893.91
2022-11-15T02:11:34.036Z,98877.63
2022-11-15T02:14:03.315Z,98865.66
2022-11-15T02:16:39.002Z,98853.69
2022-11-15T02:19:33.096Z,98858.00
2022-11-15T02:22:15.555Z,98841.75
2022-11-15T02:25:04.513Z,98830.59
2022-11-15T02:27:54.782Z,98824.63
2022-11-15T02:30:45.733Z,98821.22
2022-11-15T02:33:43.540Z,98815.22
2022-11-15T02:36:23.265Z,98810.09
2022-11-15T02:38:59.946Z,98813.50
2022-11-15T02:41:34.562Z,98803.22
2022-11-15T02:44:08.435Z,98810.06
2022-11-15T02:47:01.118Z,98806.63
2022-11-15T02:49:32.372Z,98800.66
2022-11-15T02:51:59.013Z,98800.66
2022-11-15T02:54:27.997Z,98805.78
2022-11-15T02:56:57.104Z,98796.38
2022-11-15T02:59:43.786Z,98798.06
2022-11-15T03:02:28.943Z,98781.78
2022-11-15T03:05:31.215Z,98785.22
2022-11-15T03:08:20.357Z,98775.84
2022-11-15T03:11:05.435Z,98769.81
2022-11-15T03:13:57.439Z,98764.66
2022-11-15T03:16:43.376Z,98758.66
2022-11-15T03:19:21.774Z,98750.97
2022-11-15T03:21:49.860Z,98744.09
2022-11-15T03:24:25.644Z,98747.53
2022-11-15T03:26:56.060Z,98746.66
2022-11-15T03:29:28.637Z,98746.66
2022-11-15T03:32:01.395Z,98738.09
2022-11-15T03:34:34.041Z,98730.38
2022-11-15T03:37:01.519Z,98729.56
2022-11-15T03:39:29.957Z,98721.81
2022-11-15T03:42:08.060Z,98719.25
2022-11-15T03:44:49.557Z,98714.97
2022-11-15T03:47:22.732Z,98710.66
2022-11-15T03:50:00.830Z,98714.94
2022-11-15T03:52:32.461Z,98714.09
2022-11-15T03:55:02.362Z,98707.22
2022-11-15T03:57:29.149Z,98708.09
2022-11-15T03:59:55.658Z,98701.25
2022-11-15T04:02:22.201Z,98698.66
2022-11-15T04:04:48.737Z,98693.50
2022-11-15T04:07:15.498Z,98694.38
2022-11-15T04:10:00.622Z,98696.09
2022-11-15T04:12:33.554Z,98693.50
2022-11-15T04:15:10.577Z,98692.66
2022-11-15T04:17:48.908Z,98686.66
2022-11-15T04:20:42.481Z,98682.38
2022-11-15T04:23:34.008Z,98672.94
2022-11-15T04:26:08.121Z,98659.22
2022-11-15T04:28:35.171Z,98661.78
2022-11-15T04:31:01.714Z,98666.09
2022-11-15T04:33:28.219Z,98660.94
2022-11-15T04:36:13.479Z,98657.50
2022-11-15T04:38:39.969Z,98650.63
2022-11-15T04:41:06.661Z,98648.06
2022-11-15T04:43:33.508Z,98647.19
2022-11-15T04:46:00.280Z,98656.63
2022-11-15T04:48:26.784Z,98649.78
2022-11-15T04:50:53.352Z,98642.88
2022-11-15T04:53:19.842Z,98636.06
2022-11-15T04:55:47.230Z,98629.19
2022-11-15T04:58:13.935Z,98621.47
2022-11-15T05:00:41.005Z,98642.03
2022-11-15T05:03:26.597Z,98628.28
2022-11-15T05:05:53.156Z,98622.31
2022-11-15T05:08:19.666Z,98616.28
2022-11-15T05:10:46.198Z,98624.00
2022-11-15T05:13:12.741Z,98620.56
2022-11-15T05:15:39.270Z,98608.56
2022-11-15T05:18:05.831Z,98612.88
2022-11-15T05:20:32.399Z,98612.81
2022-11-15T05:22:59.082Z,98596.50
2022-11-15T05:25:26.158Z,98599.91
2022-11-15T05:27:52.733Z,98598.22
2022-11-15T05:30:19.437Z,98587.97
2022-11-15T05:32:46.235Z,98577.66
2022-11-15T05:35:31.894Z,98576.78
2022-11-15T05:37:58.700Z,98580.19
2022-11-15T05:40:25.720Z,98590.50
2022-11-15T05:42:52.350Z,98592.19
2022-11-15T05:45:23.925Z,98587.06
2022-11-15T05:47:56.192Z,98582.81
2022-11-15T05:50:22.735Z,98586.19
2022-11-15T05:52:49.657Z,98580.19
2022-11-15T05:55:16.705Z,98587.91
2022-11-15T05:57:43.416Z,98578.53
2022-11-15T06:00:10.948Z,98578.47
2022-11-15T06:02:37.469Z,98583.66
2022-11-15T06:05:04.462Z,98572.50
2022-11-15T06:07:31.206Z,98582.78
2022-11-15T06:09:57.941Z,98580.22
2022-11-15T06:12:24.483Z,98576.78
2022-11-15T06:14:50.961Z,98579.31
2022-11-15T06:17:17.416Z,98574.16
2022-11-15T06:19:43.958Z,98568.16
2022-11-15T06:22:10.797Z,98577.63
2022-11-15T06:24:37.273Z,98573.31
2022-11-15T06:27:03.896Z,98578.47
2022-11-15T06:29:30.371Z,98570.78
2022-11-15T06:31:56.884Z,98571.63
2022-11-15T06:34:23.465Z,98573.28
2022-11-15T06:36:49.944Z,98572.44
2022-11-15T06:39:16.702Z,98575.00
2022-11-15T06:41:43.184Z,98564.75
2022-11-15T06:44:10.146Z,98570.75
2022-11-15T06:46:36.686Z,98575.91
2022-11-15T06:49:08.389Z,98563.84
2022-11-15T06:51:36.128Z,98571.56
2022-11-15T06:54:02.791Z,98561.25
2022-11-15T06:56:29.371Z,98569.81
2022-11-15T06:58:56.753Z,98562.94
2022-11-15T07:01:23.352Z,98574.97
2022-11-15T07:03:50.013Z,98572.38
2022-11-15T07:06:16.537Z,98569.78
2022-11-15T07:08:43.771Z,98571.47
2022-11-15T07:11:10.597Z,98569.75
2022-11-15T07:13:38.247Z,98577.47
2022-11-15T07:16:07.025Z,98570.63
2022-11-15T07:18:37.601Z,98570.59
2022-11-15T07:21:05.556Z,98573.16
2022-11-15T07:23:32.820Z,98572.28
2022-11-15T07:26:00.289Z,98571.38
2022-11-15T07:28:27.405Z,98570.63
2022-11-15T07:30:54.543Z,98568.00
2022-11-15T07:33:21.139Z,98562.81
2022-11-15T07:35:51.016Z,98568.84
2022-11-15T07:38:21.157Z,98562.81
2022-11-15T07:40:48.501Z,98571.41
2022-11-15T07:43:15.792Z,98565.34
2022-11-15T07:45:46.661Z,98577.34
2022-11-15T07:48:13.380Z,98581.66
2022-11-15T07:50:43.495Z,98587.63
2022-11-15T07:53:11.378Z,98603.97
2022-11-15T07:55:38.303Z,98600.53
2022-11-15T07:58:06.704Z,98597.06
2022-11-15T08:00:34.490Z,98603.13
2022-11-15T08:03:09.491Z,98605.66
2022-11-15T08:05:37.167Z,98621.13
2022-11-15T08:08:04.338Z,98620.28
2022-11-15T08:10:32.605Z,98620.22
2022-11-15T08:13:04.816Z,98623.69
2022-11-15T08:15:31.981Z,98622.81
2022-11-15T08:18:01.724Z,98609.06
2022-11-15T08:20:30.729Z,98624.47
2022-11-15T08:22:58.400Z,98619.34
2022-11-15T08:25:27.346Z,98621.06
2022-11-15T08:27:57.240Z,98615.88
2022-11-15T08:30:24.981Z,98624.47
2022-11-15T08:32:52.968Z,98622.72
2022-11-15T08:35:24.892Z,98645.00
2022-11-15T08:37:55.545Z,98642.44
2022-11-15T08:40:22.975Z,98641.59
2022-11-15T08:42:50.077Z,98645.00
2022-11-15T08:45:16.612Z,98650.16
2022-11-15T08:47:43.082Z,98657.00
2022-11-15T08:50:10.280Z,98647.53
2022-11-15T08:52:36.882Z,98662.03
2022-11-15T08:55:03.535Z,98685.19
2022-11-15T08:57:31.418Z,98698.97
2022-11-15T08:59:58.221Z,98700.66
2022-11-15T09:02:24.722Z,98716.94
2022-11-15T09:04:51.224Z,98725.56
2022-11-15T09:07:17.968Z,98728.97
2022-11-15T09:09:44.476Z,98726.38
2022-11-15T09:12:11.004Z,98739.34
2022-11-15T09:14:37.963Z,98735.88
2022-11-15T09:17:04.864Z,98730.69
2022-11-15T09:19:31.388Z,98745.22
2022-11-15T09:21:57.867Z,98747.00
2022-11-15T09:24:24.382Z,98748.66
2022-11-15T09:26:52.400Z,98740.06
2022-11-15T09:29:19.942Z,98740.06
2022-11-15T09:31:46.539Z,98744.38
2022-11-15T09:34:13.113Z,98749.53
2022-11-15T09:36:39.674Z,98756.38
2022-11-15T09:39:06.202Z,98769.28
2022-11-15T09:41:49.450Z,98775.22
2022-11-15T09:44:25.883Z,98780.34
2022-11-15T09:47:00.697Z,98775.06
2022-11-15T09:49:27.689Z,98794.03
2022-11-15T09:51:55.433Z,98800.16
2022-11-15T09:54:53.996Z,98806.09
2022-11-15T09:57:36.103Z,98796.69
2022-11-15T10:00:44.262Z,98805.19
2022-11-15T10:03:08.876Z,98820.69
2022-11-15T10:05:43.441Z,98829.25
2022-11-15T10:08:41.564Z,98826.69
2022-11-15T10:14:02.602Z,98825.69
2022-11-15T10:16:29.036Z,98831.69
2022-11-15T10:19:34.410Z,98831.66
2022-11-15T10:22:03.746Z,98833.34
2022-11-15T10:24:36.343Z,98824.78
2022-11-15T10:27:10.857Z,98828.88
2022-11-15T10:29:43.130Z,98838.31
2022-11-15T10:32:14.974Z,98835.59
2022-11-15T10:34:42.112Z,98842.41
2022-11-15T10:37:08.995Z,98854.28
2022-11-15T10:39:35.824Z,98864.69
2022-11-15T10:42:28.989Z,98857.75
2022-11-15T10:44:55.948Z,98870.69
2022-11-15T10:47:28.179Z,98875.78
2022-11-15T10:50:02.266Z,98882.69
2022-11-15T10:52:30.917Z,98886.91
2022-11-15T10:55:03.644Z,98880.81
2022-11-15T10:57:38.382Z,98876.53
2022-11-15T11:00:34.575Z,98872.28
2022-11-15T11:03:10.447Z,98873.19
2022-11-15T11:05:42.747Z,98870.50
2022-11-15T11:08:12.275Z,98868.72
2022-11-15T11:11:00.189Z,98860.91
2022-11-15T11:13:30.923Z,98849.75
2022-11-15T11:16:15.850Z,98852.97
2022-11-15T11:18:52.851Z,98851.41
2022-11-15T11:21:39.611Z,98843.56
2022-11-15T11:24:20.402Z,98851.16
2022-11-15T11:27:05.246Z,98859.91
2022-11-15T11:29:39.719Z,98854.88
2022-11-15T11:32:25.254Z,98850.41
2022-11-15T11:35:07.717Z,98849.53
2022-11-15T11:37:46.300Z,98848.56
2022-11-15T11:40:31.216Z,98848.44
2022-11-15T11:43:17.538Z,98852.72
2022-11-15T11:46:21.461Z,98854.16
2022-11-15T11:48:53.459Z,98853.16
2022-11-15T11:51:33.683Z,98856.69
2022-11-15T11:54:26.770Z,98855.63
2022-11-15T11:56:55.361Z,98859.13
2022-11-15T11:59:44.553Z,98855.00
2022-11-15T12:02:26.955Z,98855.88
2022-11-15T12:05:12.976Z,98860.97
2022-11-15T12:07:40.524Z,98865.34
2022-11-15T12:10:21.065Z,98861.13
2022-11-15T12:12:50.493Z,98855.13
2022-11-15T12:15:24.685Z,98843.94
2022-11-15T12:17:51.311Z,98840.31
2022-11-15T12:20:21.699Z,98851.50
2022-11-15T12:23:11.279Z,98863.59
2022-11-15T12:25:45.850Z,98853.94
2022-11-15T12:28:22.009Z,98844.25
2022-11-15T12:30:57.493Z,98841.81
2022-11-15T12:33:41.057Z,98840.00
2022-11-15T12:36:35.651Z,98851.31
2022-11-15T12:39:05.165Z,98852.00
2022-11-15T12:41:37.395Z,98840.75
2022-11-15T12:44:05.475Z,98852.91
2022-11-15T12:46:31.904Z,98859.78
2022-11-15T12:49:11.592Z,98849.63
2022-11-15T12:51:44.104Z,98853.91
2022-11-15T12:54:22.800Z,98844.41
2022-11-15T12:57:04.464Z,98847.81
2022-11-15T12:59:56.475Z,98837.41
2022-11-15T13:02:27.720Z,98833.19
2022-11-15T13:05:14.556Z,98828.78
2022-11-15T13:07:41.220Z,98827.69
2022-11-15T13:10:13.620Z,98832.09
2022-11-15T13:12:45.983Z,98830.38
2022-11-15T13:15:12.544Z,98825.22
2022-11-15T13:17:48.194Z,98833.19
2022-11-15T13:20:17.690Z,98834.78
2022-11-15T13:22:55.456Z,98838.19
2022-11-15T13:25:34.261Z,98832.19
2022-11-15T13:28:07.591Z,98840.81
2022-11-15T13:30:34.678Z,98851.19
2022-11-15T13:33:10.651Z,98846.03
2022-11-15T13:35:41.152Z,98840.22
2022-11-15T13:38:07.790Z,98837.53
2022-11-15T13:40:38.806Z,98846.19
2022-11-15T13:43:28.630Z,98848.69
2022-11-15T13:46:15.298Z,98841.69
2022-11-15T13:48:43.155Z,98851.28
2022-11-15T13:51:22.290Z,98841.00
2022-11-15T13:53:57.524Z,98842.88
2022-11-15T13:56:24.678Z,98839.56
2022-11-15T13:58:51.336Z,98840.41
2022-11-15T14:01:21.637Z,98841.00
2022-11-15T14:04:06.334Z,98841.88
2022-11-15T14:06:32.977Z,98847.31
2022-11-15T14:09:10.907Z,98854.28
2022-11-15T14:11:38.572Z,98857.00
2022-11-15T14:14:14.208Z,98865.81
2022-11-15T14:16:46.314Z,98867.53
2022-11-15T14:19:34.728Z,98866.59
2022-11-15T14:22:23.900Z,98870.88
2022-11-15T14:25:21.066Z,98872.66
2022-11-15T14:28:15.643Z,98857.13
2022-11-15T14:30:47.260Z,98866.69
2022-11-15T14:33:36.709Z,98867.59
2022-11-15T14:36:05.193Z,98873.72
2022-11-15T14:38:32.734Z,98874.59
2022-11-15T14:40:59.679Z,98867.72
2022-11-15T14:43:26.451Z,98864.16
2022-11-15T14:45:53.080Z,98859.75
2022-11-15T14:48:19.642Z,98858.09
2022-11-15T14:50:46.479Z,98839.91
2022-11-15T14:53:18.056Z,98838.97
2022-11-15T14:55:44.866Z,98827.06
2022-11-15T14:58:11.684Z,98794.41
2022-11-15T15:00:41.019Z,98771.88
2022-11-15T15:03:08.401Z,98749.50
2022-11-15T15:05:38.299Z,98728.72
2022-11-15T15:08:06.409Z,98735.50
2022-11-15T15:10:41.374Z,98739.91
2022-11-15T15:13:27.003Z,98717.69
2022-11-15T15:15:53.824Z,98707.44
2022-11-15T15:18:21.226Z,98692.88
2022-11-15T15:20:55.815Z,98676.47
2022-11-15T15:23:23.989Z,98679.13
2022-11-15T15:25:51.544Z,98677.41
2022-11-15T15:28:18.284Z,98676.56
2022-11-15T15:30:44.844Z,98679.09
2022-11-15T15:33:11.540Z,98676.53
2022-11-15T15:35:38.322Z,98663.69
2022-11-15T15:38:06.461Z,98667.97
2022-11-15T15:40:34.288Z,98683.44
2022-11-15T15:43:02.283Z,98681.78
2022-11-15T15:45:30.828Z,98685.25
2022-11-15T15:47:57.410Z,98679.31
2022-11-15T15:50:33.578Z,98675.03
2022-11-15T15:53:02.122Z,98668.94
2022-11-15T15:55:29.616Z,98663.81
2022-11-15T15:57:56.442Z,98661.28
2022-11-15T16:00:25.618Z,98654.50
2022-11-15T16:02:53.148Z,98663.97
2022-11-15T16:05:20.466Z,98654.56
2022-11-15T16:07:48.453Z,98650.25
2022-11-15T16:10:21.027Z,98637.28
2022-11-15T16:12:48.273Z,98645.81
2022-11-15T16:15:15.247Z,98638.09
2022-11-15T16:17:49.452Z,98649.28
2022-11-15T16:20:22.076Z,98644.91
2022-11-15T16:22:48.748Z,98639.84
2022-11-15T16:25:15.563Z,98621.06
2022-11-15T16:27:45.916Z,98618.47
2022-11-15T16:30:17.474Z,98608.19
2022-11-15T16:32:44.508Z,98597.84
2022-11-15T16:35:13.763Z,98614.13
2022-11-15T16:37:41.593Z,98606.53
2022-11-15T16:40:33.421Z,98600.63
2022-11-15T16:43:02.824Z,98588.69
2022-11-15T16:45:29.487Z,98572.44
2022-11-15T16:47:56.547Z,98570.63
2022-11-15T16:50:25.172Z,98574.19
2022-11-15T16:52:53.220Z,98569.03
2022-11-15T16:55:21.292Z,98568.25
2022-11-15T16:57:48.372Z,98564.91
2022-11-15T17:00:16.682Z,98563.19
2022-11-15T17:02:45.242Z,98561.47
2022-11-15T17:05:17.281Z,98569.13
2022-11-15T17:07:52.373Z,98570.81
2022-11-15T17:10:19.093Z,98567.44
2022-11-15T17:12:45.594Z,98567.41
2022-11-15T17:15:13.694Z,98558.84
2022-11-15T17:17:41.120Z,98573.50
2022-11-15T17:20:16.574Z,98564.91
2022-11-15T17:22:43.464Z,98581.16
2022-11-15T17:25:10.741Z,98585.38
2022-11-15T17:27:37.278Z,98587.13
2022-11-15T17:30:05.250Z,98586.47
2022-11-15T17:32:31.740Z,98566.59
2022-11-15T17:34:58.297Z,98553.78
2022-11-15T17:37:24.832Z,98546.00
2022-11-15T17:39:51.332Z,98544.34
2022-11-15T17:42:18.004Z,98541.94
2022-11-15T17:44:44.577Z,98553.91
2022-11-15T17:47:11.159Z,98552.22
2022-11-15T17:49:40.712Z,98546.16
2022-11-15T17:52:07.847Z,98540.25
2022-11-15T17:54:34.427Z,98524.88
2022-11-15T17:57:01.520Z,98520.63
2022-11-15T17:59:28.085Z,98500.91
2022-11-15T18:01:54.620Z,98488.06
2022-11-15T18:04:21.741Z,98469.16
2022-11-15T18:06:48.256Z,98461.38
2022-11-15T18:09:15.022Z,98461.34
2022-11-15T18:11:43.166Z,98470.81
2022-11-15T18:14:19.672Z,98482.88
2022-11-15T18:16:46.253Z,98482.88
2022-11-15T18:19:13.834Z,98491.47
2022-11-15T18:21:58.941Z,98490.56
2022-11-15T18:24:31.258Z,98477.66
2022-11-15T18:27:00.286Z,98472.47
2022-11-15T18:29:27.012Z,98466.50
2022-11-15T18:31:57.431Z,98451.03
2022-11-15T18:34:26.137Z,98449.31
2022-11-15T18:36:53.095Z,98459.63
2022-11-15T18:39:20.120Z,98460.53
2022-11-15T18:41:46.904Z,98445.00
2022-11-15T18:44:14.963Z,98420.84
2022-11-15T18:46:47.933Z,98426.09
2022-11-15T18:49:16.729Z,98434.78
2022-11-15T18:51:43.897Z,98474.38
2022-11-15T18:54:14.006Z,98494.16
2022-11-15T18:56:41.639Z,98522.50
2022-11-15T18:59:08.765Z,98558.56
2022-11-15T19:01:40.431Z,98530.06
2022-11-15T19:04:12.569Z,98503.94
2022-11-15T19:06:44.492Z,98485.50
2022-11-15T19:09:15.184Z,98498.38
2022-11-15T19:11:42.595Z,98493.50
2022-11-15T19:14:11.149Z,98522.81
2022-11-15T19:16:40.226Z,98503.19
2022-11-15T19:19:10.449Z,98479.28
2022-11-15T19:21:37.057Z,98460.47
2022-11-15T19:24:04.533Z,98463.00
2022-11-15T19:26:31.072Z,98453.66
2022-11-15T19:29:00.120Z,98469.19
2022-11-15T19:31:28.452Z,98464.06
2022-11-15T19:33:55.957Z,98464.13
2022-11-15T19:36:28.624Z,98482.97
2022-11-15T19:38:56.099Z,98489.84
2022-11-15T19:41:24.185Z,98499.31
2022-11-15T19:43:52.004Z,98502.72
2022-11-15T19:46:20.895Z,98501.09
2022-11-15T19:48:47.820Z,98507.13
2022-11-15T19:51:21.564Z,98520.91
2022-11-15T19:53:49.485Z,98508.91
2022-11-15T19:56:18.099Z,98519.22
2022-11-15T19:58:45.749Z,98511.53
2022-11-15T20:01:21.357Z,98513.22
2022-11-15T20:03:50.143Z,98527.91
2022-11-15T20:06:19.247Z,98534.78
2022-11-15T20:08:47.877Z,98535.66
2022-11-15T20:11:15.461Z,98541.72
2022-11-15T20:13:43.019Z,98551.97
2022-11-15T20:16:14.769Z,98552.84
2022-11-15T20:18:41.499Z,98549.38
2022-11-15T20:21:09.557Z,98549.34
2022-11-15T20:23:36.221Z,98552.00
2022-11-15T20:26:03.037Z,98548.50
2022-11-15T20:28:29.557Z,98554.53
2022-11-15T20:30:58.372Z,98564.00
2022-11-15T20:33:25.420Z,98574.34
2022-11-15T20:35:52.677Z,98594.03
2022-11-15T20:38:20.481Z,98600.91
2022-11-15T20:40:56.016Z,98606.94
2022-11-15T20:43:26.308Z,98606.09
2022-11-15T20:45:52.803Z,98602.63
2022-11-15T20:48:19.604Z,98600.91
2022-11-15T20:50:47.230Z,98613.78
2022-11-15T20:53:18.121Z,98612.94
2022-11-15T20:55:47.922Z,98620.63
2022-11-15T20:58:15.574Z,98605.22
2022-11-15T21:00:43.384Z,98607.78
2022-11-15T21:03:10.833Z,98610.34
2022-11-15T21:05:42.661Z,98609.50
2022-11-15T21:08:11.164Z,98601.78
2022-11-15T21:10:56.356Z,98592.38
2022-11-15T21:13:23.024Z,98586.34
2022-11-15T21:15:49.579Z,98582.09
2022-11-15T21:18:16.414Z,98577.78
2022-11-15T21:20:43.066Z,98578.66
2022-11-15T21:23:10.700Z,98597.53
2022-11-15T21:25:37.197Z,98600.94
2022-11-15T21:28:03.872Z,98609.50
2022-11-15T21:30:30.780Z,98602.66
2022-11-15T21:32:57.299Z,98598.34
2022-11-15T21:35:23.950Z,98600.09
2022-11-15T21:37:56.192Z,98618.06
2022-11-15T21:40:23.796Z,98615.50
2022-11-15T21:42:50.648Z,98606.06
2022-11-15T21:45:17.385Z,98617.22
2022-11-15T21:47:46.304Z,98622.38
2022-11-15T21:50:14.012Z,98616.38
2022-11-15T21:52:41.933Z,98618.09
2022-11-15T21:55:09.283Z,98610.38
2022-11-15T21:57:35.792Z,98602.69
2022-11-15T22:00:21.075Z,98594.09
2022-11-15T22:02:47.563Z,98581.22
2022-11-15T22:05:14.211Z,98599.25
2022-11-15T22:07:41.095Z,98603.50
2022-11-15T22:10:07.964Z,98592.38
2022-11-15T22:12:34.660Z,98598.38
2022-11-15T22:15:01.137Z,98597.47
2022-11-15T22:17:47.621Z,98592.38
2022-11-15T22:20:42.457Z,98594.91
2022-11-15T22:23:02.182Z,98606.06
2022-11-15T22:25:29.913Z,98613.81
2022-11-15T22:27:57.244Z,98608.59
2022-11-15T22:30:24.358Z,98613.78
2022-11-15T22:32:50.887Z,98615.47
2022-11-15T22:35:17.563Z,98612.97
2022-11-15T22:37:44.562Z,98607.78
2022-11-15T22:40:11.089Z,98606.94
2022-11-15T22:42:37.626Z,98606.09
2022-11-15T22:45:04.499Z,98600.09
2022-11-15T22:47:31.010Z,98602.66
2022-11-15T22:49:57.967Z,98603.53
2022-11-15T22:52:24.470Z,98607.78
2022-11-15T22:54:51.220Z,98609.47
2022-11-15T22:57:17.716Z,98612.91
2022-11-15T22:59:44.608Z,98599.22
2022-11-15T23:02:11.099Z,98597.50
2022-11-15T23:04:37.672Z,98597.50
2022-11-15T23:07:04.548Z,98582.91
2022-11-15T23:09:31.113Z,98582.06
2022-11-15T23:12:15.945Z,98583.78
2022-11-15T23:14:42.428Z,98592.34
2022-11-15T23:17:09.464Z,98590.63
2022-11-15T23:19:36.039Z,98595.75
2022-11-15T23:22:21.132Z,98588.91
2022-11-15T23:24:47.708Z,98592.34
2022-11-15T23:27:19.811Z,98584.66
2022-11-15T23:30:06.085Z,98590.66
2022-11-15T23:32:55.973Z,98593.22
2022-11-15T23:35:22.446Z,98593.22
2022-11-15T23:37:49.059Z,98574.38
2022-11-15T23:40:15.670Z,98577.78
2022-11-15T23:42:42.292Z,98576.06
2022-11-15T23:45:09.120Z,98576.09
2022-11-15T23:47:35.615Z,98574.38
2022-11-15T23:50:02.165Z,98562.38
2022-11-15T23:52:28.676Z,98552.09
2022-11-15T23:54:55.166Z,98552.09
2022-11-15T23:57:21.640Z,98534.94
2022-11-15T23:59:48.262Z,98533.25
